sensor_id;sensor_type;location;lat;lon;timestamp;pressure;altitude;pressure_sealevel;temperature;humidity
65997;BME280;52765;52.258;21.052;2023-05-08T00:01:43;101977.97;;;6.80;92.34
65997;BME280;52765;52.258;21.052;2023-05-08T00:04:08;101991.00;;;6.87;92.36
65997;BME280;52765;52.258;21.052;2023-05-08T00:06:34;101986.59;;;6.85;91.98
65997;BME280;52765;52.258;21.052;2023-05-08T00:09:00;101993.78;;;6.85;91.98
65997;BME280;52765;52.258;21.052;2023-05-08T00:11:25;101997.09;;;6.74;91.93
65997;BME280;52765;52.258;21.052;2023-05-08T00:13:51;101996.69;;;6.66;92.08
65997;BME280;52765;52.258;21.052;2023-05-08T00:16:16;101987.38;;;6.57;92.47
65997;BME280;52765;52.258;21.052;2023-05-08T00:18:42;101989.22;;;6.57;92.88
65997;BME280;52765;52.258;21.052;2023-05-08T00:21:07;101990.94;;;6.58;93.22
65997;BME280;52765;52.258;21.052;2023-05-08T00:23:33;101990.31;;;6.53;92.58
65997;BME280;52765;52.258;21.052;2023-05-08T00:25:58;101990.53;;;6.50;93.38
65997;BME280;52765;52.258;21.052;2023-05-08T00:28:24;101990.88;;;6.43;92.98
65997;BME280;52765;52.258;21.052;2023-05-08T00:30:50;102001.09;;;6.37;92.86
65997;BME280;52765;52.258;21.052;2023-05-08T00:33:16;102004.13;;;6.30;93.49
65997;BME280;52765;52.258;21.052;2023-05-08T00:35:42;102001.34;;;6.32;93.77
65997;BME280;52765;52.258;21.052;2023-05-08T00:38:08;101996.84;;;6.33;93.95
65997;BME280;52765;52.258;21.052;2023-05-08T00:40:34;101993.50;;;6.29;94.05
65997;BME280;52765;52.258;21.052;2023-05-08T00:43:00;102006.53;;;6.35;93.85
65997;BME280;52765;52.258;21.052;2023-05-08T00:45:32;102011.78;;;6.37;93.36
65997;BME280;52765;52.258;21.052;2023-05-08T00:47:59;102010.31;;;6.31;93.97
65997;BME280;52765;52.258;21.052;2023-05-08T00:50:25;102011.53;;;6.25;93.77
65997;BME280;52765;52.258;21.052;2023-05-08T00:52:51;102017.59;;;6.29;93.84
65997;BME280;52765;52.258;21.052;2023-05-08T00:55:18;102014.91;;;6.29;93.48
65997;BME280;52765;52.258;21.052;2023-05-08T00:57:49;102018.13;;;6.20;93.36
65997;BME280;52765;52.258;21.052;2023-05-08T01:00:17;102009.16;;;6.05;93.68
65997;BME280;52765;52.258;21.052;2023-05-08T01:02:43;102023.00;;;5.96;94.05
65997;BME280;52765;52.258;21.052;2023-05-08T01:05:09;102022.41;;;5.90;94.74
65997;BME280;52765;52.258;21.052;2023-05-08T01:07:34;102031.19;;;5.92;94.83
65997;BME280;52765;52.258;21.052;2023-05-08T01:10:00;102030.13;;;5.97;94.25
65997;BME280;52765;52.258;21.052;2023-05-08T01:20:45;102034.16;;;6.04;93.30
65997;BME280;52765;52.258;21.052;2023-05-08T01:32:05;102046.13;;;5.81;94.57
65997;BME280;52765;52.258;21.052;2023-05-08T01:34:49;102049.03;;;5.76;93.91
65997;BME280;52765;52.258;21.052;2023-05-08T01:37:20;102049.91;;;5.77;93.73
65997;BME280;52765;52.258;21.052;2023-05-08T01:42:35;102050.41;;;5.67;92.96
65997;BME280;52765;52.258;21.052;2023-05-08T01:45:10;102045.75;;;5.55;93.35
65997;BME280;52765;52.258;21.052;2023-05-08T01:47:37;102047.25;;;5.43;93.55
65997;BME280;52765;52.258;21.052;2023-05-08T01:50:17;102060.88;;;5.38;93.88
65997;BME280;52765;52.258;21.052;2023-05-08T01:52:48;102059.63;;;5.28;94.63
65997;BME280;52765;52.258;21.052;2023-05-08T01:55:29;102060.72;;;5.24;94.50
65997;BME280;52765;52.258;21.052;2023-05-08T01:57:57;102060.81;;;5.23;95.62
65997;BME280;52765;52.258;21.052;2023-05-08T02:00:24;102041.72;;;5.13;94.56
65997;BME280;52765;52.258;21.052;2023-05-08T02:02:53;102059.31;;;5.17;94.52
65997;BME280;52765;52.258;21.052;2023-05-08T02:05:21;102059.16;;;5.20;94.34
65997;BME280;52765;52.258;21.052;2023-05-08T02:07:48;102047.31;;;5.08;94.50
65997;BME280;52765;52.258;21.052;2023-05-08T02:10:16;102053.59;;;5.07;94.14
65997;BME280;52765;52.258;21.052;2023-05-08T02:12:43;102057.31;;;5.05;94.70
65997;BME280;52765;52.258;21.052;2023-05-08T02:15:11;102065.63;;;4.98;94.62
65997;BME280;52765;52.258;21.052;2023-05-08T02:17:39;102059.72;;;4.92;95.27
65997;BME280;52765;52.258;21.052;2023-05-08T02:20:06;102061.00;;;4.85;95.60
65997;BME280;52765;52.258;21.052;2023-05-08T02:22:32;102063.56;;;4.86;95.41
65997;BME280;52765;52.258;21.052;2023-05-08T02:25:00;102063.66;;;4.85;95.46
65997;BME280;52765;52.258;21.052;2023-05-08T02:27:26;102062.84;;;4.82;95.61
65997;BME280;52765;52.258;21.052;2023-05-08T02:29:53;102064.75;;;4.80;95.81
65997;BME280;52765;52.258;21.052;2023-05-08T02:32:20;102063.81;;;4.81;95.79
65997;BME280;52765;52.258;21.052;2023-05-08T02:34:48;102061.22;;;4.80;95.75
65997;BME280;52765;52.258;21.052;2023-05-08T02:37:17;102058.56;;;4.80;95.72
65997;BME280;52765;52.258;21.052;2023-05-08T02:39:44;102058.69;;;4.77;95.87
65997;BME280;52765;52.258;21.052;2023-05-08T02:42:11;102063.06;;;4.78;96.75
65997;BME280;52765;52.258;21.052;2023-05-08T02:44:37;102060.34;;;4.79;96.14
65997;BME280;52765;52.258;21.052;2023-05-08T02:47:26;102059.19;;;4.85;96.13
65997;BME280;52765;52.258;21.052;2023-05-08T02:50:01;102058.22;;;4.86;95.92
65997;BME280;52765;52.258;21.052;2023-05-08T02:52:31;102065.06;;;4.92;96.37
65997;BME280;52765;52.258;21.052;2023-05-08T02:55:04;102059.44;;;4.98;95.97
65997;BME280;52765;52.258;21.052;2023-05-08T03:00:15;102062.53;;;5.06;94.99
65997;BME280;52765;52.258;21.052;2023-05-08T03:02:49;102060.59;;;5.10;95.25
65997;BME280;52765;52.258;21.052;2023-05-08T03:05:23;102071.50;;;5.05;94.41
65997;BME280;52765;52.258;21.052;2023-05-08T03:07:52;102070.53;;;5.06;94.45
65997;BME280;52765;52.258;21.052;2023-05-08T03:10:20;102065.22;;;5.06;94.95
65997;BME280;52765;52.258;21.052;2023-05-08T03:12:51;102067.09;;;5.04;94.90
65997;BME280;52765;52.258;21.052;2023-05-08T03:15:22;102082.34;;;5.02;94.69
65997;BME280;52765;52.258;21.052;2023-05-08T03:17:53;102072.53;;;5.03;94.98
65997;BME280;52765;52.258;21.052;2023-05-08T03:20:21;102075.34;;;4.99;94.70
65997;BME280;52765;52.258;21.052;2023-05-08T03:22:49;102087.69;;;5.02;94.75
65997;BME280;52765;52.258;21.052;2023-05-08T03:25:16;102090.50;;;4.99;94.35
65997;BME280;52765;52.258;21.052;2023-05-08T03:27:44;102085.25;;;4.97;94.68
65997;BME280;52765;52.258;21.052;2023-05-08T03:30:11;102083.84;;;4.90;93.98
65997;BME280;52765;52.258;21.052;2023-05-08T03:32:37;102087.22;;;4.76;93.86
65997;BME280;52765;52.258;21.052;2023-05-08T03:35:04;102091.13;;;4.69;93.91
65997;BME280;52765;52.258;21.052;2023-05-08T03:37:30;102096.09;;;4.58;94.17
65997;BME280;52765;52.258;21.052;2023-05-08T03:39:56;102096.44;;;4.52;94.78
65997;BME280;52765;52.258;21.052;2023-05-08T03:42:22;102092.97;;;4.50;94.88
65997;BME280;52765;52.258;21.052;2023-05-08T03:44:54;102092.09;;;4.49;94.67
65997;BME280;52765;52.258;21.052;2023-05-08T03:47:23;102087.94;;;4.43;94.95
65997;BME280;52765;52.258;21.052;2023-05-08T03:49:50;102077.41;;;4.40;95.18
65997;BME280;52765;52.258;21.052;2023-05-08T03:52:17;102096.22;;;4.56;94.76
65997;BME280;52765;52.258;21.052;2023-05-08T03:54:42;102098.78;;;4.58;94.88
65997;BME280;52765;52.258;21.052;2023-05-08T03:57:08;102091.44;;;4.63;94.69
65997;BME280;52765;52.258;21.052;2023-05-08T04:08:23;102091.25;;;4.66;94.05
65997;BME280;52765;52.258;21.052;2023-05-08T04:10:58;102092.84;;;4.70;94.33
65997;BME280;52765;52.258;21.052;2023-05-08T04:13:30;102103.59;;;4.69;94.44
65997;BME280;52765;52.258;21.052;2023-05-08T04:16:11;102098.03;;;4.73;94.47
65997;BME280;52765;52.258;21.052;2023-05-08T04:18:44;102104.09;;;4.77;94.76
65997;BME280;52765;52.258;21.052;2023-05-08T04:21:15;102117.63;;;4.91;94.24
65997;BME280;52765;52.258;21.052;2023-05-08T04:23:46;102118.41;;;4.93;93.69
65997;BME280;52765;52.258;21.052;2023-05-08T04:26:13;102122.34;;;5.04;93.72
65997;BME280;52765;52.258;21.052;2023-05-08T04:28:41;102122.81;;;5.12;93.28
65997;BME280;52765;52.258;21.052;2023-05-08T04:31:07;102128.56;;;5.22;92.92
65997;BME280;52765;52.258;21.052;2023-05-08T04:33:34;102130.03;;;5.27;92.64
65997;BME280;52765;52.258;21.052;2023-05-08T04:36:02;102140.13;;;5.40;92.16
65997;BME280;52765;52.258;21.052;2023-05-08T04:38:28;102131.59;;;5.49;91.57
65997;BME280;52765;52.258;21.052;2023-05-08T04:40:54;102135.59;;;5.57;91.67
65997;BME280;52765;52.258;21.052;2023-05-08T04:43:20;102138.81;;;5.64;90.80
65997;BME280;52765;52.258;21.052;2023-05-08T04:45:46;102138.50;;;5.70;90.24
65997;BME280;52765;52.258;21.052;2023-05-08T04:48:12;102143.44;;;5.78;90.60
65997;BME280;52765;52.258;21.052;2023-05-08T04:50:37;102140.34;;;5.86;90.31
65997;BME280;52765;52.258;21.052;2023-05-08T04:53:03;102148.81;;;5.94;90.41
65997;BME280;52765;52.258;21.052;2023-05-08T04:55:28;102143.19;;;6.00;90.22
65997;BME280;52765;52.258;21.052;2023-05-08T04:57:54;102144.56;;;6.07;90.54
65997;BME280;52765;52.258;21.052;2023-05-08T05:00:20;102156.59;;;6.16;90.45
65997;BME280;52765;52.258;21.052;2023-05-08T05:02:46;102151.78;;;6.23;90.30
65997;BME280;52765;52.258;21.052;2023-05-08T05:05:11;102156.59;;;6.32;90.22
65997;BME280;52765;52.258;21.052;2023-05-08T05:07:37;102162.22;;;6.43;89.94
65997;BME280;52765;52.258;21.052;2023-05-08T05:10:02;102145.53;;;6.54;89.93
65997;BME280;52765;52.258;21.052;2023-05-08T05:12:28;102153.91;;;6.64;89.23
65997;BME280;52765;52.258;21.052;2023-05-08T05:14:54;102158.38;;;6.79;88.79
65997;BME280;52765;52.258;21.052;2023-05-08T05:17:20;102163.22;;;6.89;88.44
65997;BME280;52765;52.258;21.052;2023-05-08T05:19:45;102160.13;;;6.96;88.34
65997;BME280;52765;52.258;21.052;2023-05-08T05:22:11;102157.06;;;7.02;87.86
65997;BME280;52765;52.258;21.052;2023-05-08T05:24:37;102155.38;;;7.16;88.02
65997;BME280;52765;52.258;21.052;2023-05-08T05:27:04;102161.06;;;7.26;87.43
65997;BME280;52765;52.258;21.052;2023-05-08T05:29:30;102165.13;;;7.33;86.67
65997;BME280;52765;52.258;21.052;2023-05-08T05:31:56;102166.22;;;7.45;86.70
65997;BME280;52765;52.258;21.052;2023-05-08T05:34:21;102163.94;;;7.53;86.10
65997;BME280;52765;52.258;21.052;2023-05-08T05:36:47;102167.88;;;7.62;84.87
65997;BME280;52765;52.258;21.052;2023-05-08T05:39:12;102172.66;;;7.71;83.74
65997;BME280;52765;52.258;21.052;2023-05-08T05:41:38;102170.56;;;7.76;82.22
65997;BME280;52765;52.258;21.052;2023-05-08T05:44:04;102167.13;;;7.88;82.10
65997;BME280;52765;52.258;21.052;2023-05-08T05:46:29;102178.75;;;8.03;81.03
65997;BME280;52765;52.258;21.052;2023-05-08T05:48:57;102170.97;;;8.13;80.35
65997;BME280;52765;52.258;21.052;2023-05-08T05:51:23;102162.53;;;8.19;79.28
65997;BME280;52765;52.258;21.052;2023-05-08T05:53:48;102164.44;;;8.31;78.64
65997;BME280;52765;52.258;21.052;2023-05-08T05:56:14;102178.63;;;8.33;76.33
65997;BME280;52765;52.258;21.052;2023-05-08T05:58:40;102167.41;;;8.41;74.87
65997;BME280;52765;52.258;21.052;2023-05-08T06:01:09;102168.66;;;8.50;74.81
65997;BME280;52765;52.258;21.052;2023-05-08T06:03:35;102177.66;;;8.63;73.05
65997;BME280;52765;52.258;21.052;2023-05-08T06:06:00;102178.69;;;8.61;70.57
65997;BME280;52765;52.258;21.052;2023-05-08T06:08:26;102173.75;;;8.55;70.90
65997;BME280;52765;52.258;21.052;2023-05-08T06:10:52;102173.47;;;8.45;72.40
65997;BME280;52765;52.258;21.052;2023-05-08T06:13:17;102186.09;;;8.57;72.06
65997;BME280;52765;52.258;21.052;2023-05-08T06:15:44;102181.19;;;8.64;70.51
65997;BME280;52765;52.258;21.052;2023-05-08T06:18:09;102184.72;;;8.79;70.21
65997;BME280;52765;52.258;21.052;2023-05-08T06:20:36;102185.31;;;8.97;69.06
65997;BME280;52765;52.258;21.052;2023-05-08T06:23:03;102177.31;;;9.10;67.57
65997;BME280;52765;52.258;21.052;2023-05-08T06:25:28;102174.00;;;9.19;67.40
65997;BME280;52765;52.258;21.052;2023-05-08T06:27:55;102182.53;;;9.38;67.40
65997;BME280;52765;52.258;21.052;2023-05-08T06:30:21;102170.94;;;9.51;67.06
65997;BME280;52765;52.258;21.052;2023-05-08T06:32:46;102172.78;;;9.63;65.85
65997;BME280;52765;52.258;21.052;2023-05-08T06:35:12;102172.38;;;9.69;64.09
65997;BME280;52765;52.258;21.052;2023-05-08T06:37:39;102178.06;;;9.77;63.43
65997;BME280;52765;52.258;21.052;2023-05-08T06:40:05;102183.34;;;9.79;62.41
65997;BME280;52765;52.258;21.052;2023-05-08T06:42:31;102173.78;;;9.75;62.66
65997;BME280;52765;52.258;21.052;2023-05-08T06:44:56;102173.34;;;9.81;62.59
65997;BME280;52765;52.258;21.052;2023-05-08T06:47:22;102175.81;;;9.84;61.03
65997;BME280;52765;52.258;21.052;2023-05-08T06:49:47;102170.09;;;9.89;60.83
65997;BME280;52765;52.258;21.052;2023-05-08T06:52:13;102165.16;;;9.95;59.49
65997;BME280;52765;52.258;21.052;2023-05-08T06:54:38;102170.00;;;10.03;58.72
65997;BME280;52765;52.258;21.052;2023-05-08T06:57:05;102172.38;;;10.08;58.89
65997;BME280;52765;52.258;21.052;2023-05-08T06:59:31;102168.38;;;10.13;59.27
65997;BME280;52765;52.258;21.052;2023-05-08T07:01:57;102173.13;;;10.23;58.96
65997;BME280;52765;52.258;21.052;2023-05-08T07:04:23;102166.84;;;10.22;57.98
65997;BME280;52765;52.258;21.052;2023-05-08T07:06:48;102165.91;;;10.36;57.51
65997;BME280;52765;52.258;21.052;2023-05-08T07:09:14;102161.03;;;10.41;57.28
65997;BME280;52765;52.258;21.052;2023-05-08T07:11:41;102162.94;;;10.52;57.38
65997;BME280;52765;52.258;21.052;2023-05-08T07:14:06;102167.78;;;10.60;56.61
65997;BME280;52765;52.258;21.052;2023-05-08T07:16:32;102165.50;;;10.66;56.16
65997;BME280;52765;52.258;21.052;2023-05-08T07:18:57;102170.69;;;10.81;55.96
65997;BME280;52765;52.258;21.052;2023-05-08T07:21:22;102165.38;;;10.92;54.93
65997;BME280;52765;52.258;21.052;2023-05-08T07:23:49;102164.69;;;11.01;53.95
65997;BME280;52765;52.258;21.052;2023-05-08T07:26:16;102172.56;;;11.04;52.72
65997;BME280;52765;52.258;21.052;2023-05-08T07:28:42;102162.16;;;11.11;52.44
65997;BME280;52765;52.258;21.052;2023-05-08T07:31:07;102158.59;;;11.10;52.46
65997;BME280;52765;52.258;21.052;2023-05-08T07:33:33;102169.31;;;11.23;51.97
65997;BME280;52765;52.258;21.052;2023-05-08T07:36:00;102168.50;;;11.34;51.37
65997;BME280;52765;52.258;21.052;2023-05-08T07:38:26;102165.81;;;11.45;51.18
65997;BME280;52765;52.258;21.052;2023-05-08T07:40:51;102165.75;;;11.58;51.02
65997;BME280;52765;52.258;21.052;2023-05-08T07:43:21;102162.34;;;11.68;50.57
65997;BME280;52765;52.258;21.052;2023-05-08T07:45:46;102158.66;;;11.80;50.77
65997;BME280;52765;52.258;21.052;2023-05-08T07:48:12;102175.25;;;11.87;50.34
65997;BME280;52765;52.258;21.052;2023-05-08T07:50:38;102172.22;;;11.91;49.85
65997;BME280;52765;52.258;21.052;2023-05-08T07:53:04;102168.91;;;11.99;49.64
65997;BME280;52765;52.258;21.052;2023-05-08T07:55:33;102156.75;;;11.93;48.79
65997;BME280;52765;52.258;21.052;2023-05-08T07:57:59;102162.41;;;12.01;48.92
65997;BME280;52765;52.258;21.052;2023-05-08T08:00:24;102160.44;;;12.15;48.72
65997;BME280;52765;52.258;21.052;2023-05-08T08:02:54;102159.56;;;12.26;48.15
65997;BME280;52765;52.258;21.052;2023-05-08T08:05:20;102159.56;;;12.26;47.98
65997;BME280;52765;52.258;21.052;2023-05-08T08:07:45;102160.31;;;12.28;47.96
65997;BME280;52765;52.258;21.052;2023-05-08T08:10:11;102165.47;;;12.19;48.32
65997;BME280;52765;52.258;21.052;2023-05-08T08:12:37;102163.63;;;12.31;48.33
65997;BME280;52765;52.258;21.052;2023-05-08T08:15:04;102153.28;;;12.48;47.47
65997;BME280;52765;52.258;21.052;2023-05-08T08:17:30;102155.59;;;12.64;47.10
65997;BME280;52765;52.258;21.052;2023-05-08T08:19:55;102149.91;;;12.78;46.57
65997;BME280;52765;52.258;21.052;2023-05-08T08:22:22;102160.09;;;12.86;46.26
65997;BME280;52765;52.258;21.052;2023-05-08T08:24:47;102156.28;;;12.77;45.48
65997;BME280;52765;52.258;21.052;2023-05-08T08:27:13;102156.06;;;12.69;46.03
65997;BME280;52765;52.258;21.052;2023-05-08T08:29:39;102144.28;;;12.70;46.05
65997;BME280;52765;52.258;21.052;2023-05-08T08:32:04;102147.75;;;12.93;46.19
65997;BME280;52765;52.258;21.052;2023-05-08T08:34:33;102148.50;;;12.95;46.41
65997;BME280;52765;52.258;21.052;2023-05-08T08:36:58;102147.97;;;13.01;46.42
65997;BME280;52765;52.258;21.052;2023-05-08T08:39:24;102140.59;;;13.03;44.83
65997;BME280;52765;52.258;21.052;2023-05-08T08:41:50;102144.22;;;13.13;44.53
65997;BME280;52765;52.258;21.052;2023-05-08T08:44:15;102140.09;;;13.09;45.12
65997;BME280;52765;52.258;21.052;2023-05-08T08:46:46;102146.03;;;13.24;44.37
65997;BME280;52765;52.258;21.052;2023-05-08T08:49:17;102144.53;;;13.31;44.52
65997;BME280;52765;52.258;21.052;2023-05-08T08:51:52;102144.50;;;13.43;44.62
65997;BME280;52765;52.258;21.052;2023-05-08T08:54:28;102138.06;;;13.44;44.26
65997;BME280;52765;52.258;21.052;2023-05-08T08:56:56;102145.28;;;13.55;43.97
65997;BME280;52765;52.258;21.052;2023-05-08T08:59:26;102131.13;;;13.72;43.58
65997;BME280;52765;52.258;21.052;2023-05-08T09:02:05;102140.50;;;13.89;43.14
65997;BME280;52765;52.258;21.052;2023-05-08T09:04:33;102134.31;;;14.08;41.91
65997;BME280;52765;52.258;21.052;2023-05-08T09:06:58;102130.81;;;14.37;41.23
65997;BME280;52765;52.258;21.052;2023-05-08T09:09:31;102129.72;;;14.49;41.15
65997;BME280;52765;52.258;21.052;2023-05-08T09:11:58;102119.97;;;14.77;40.45
65997;BME280;52765;52.258;21.052;2023-05-08T09:14:24;102124.94;;;14.92;40.00
65997;BME280;52765;52.258;21.052;2023-05-08T09:16:52;102126.97;;;15.19;40.73
65997;BME280;52765;52.258;21.052;2023-05-08T09:19:18;102127.25;;;15.26;41.29
65997;BME280;52765;52.258;21.052;2023-05-08T09:21:44;102120.50;;;15.40;40.38
65997;BME280;52765;52.258;21.052;2023-05-08T09:24:10;102124.06;;;15.30;39.40
65997;BME280;52765;52.258;21.052;2023-05-08T09:26:38;102124.06;;;15.30;37.84
65997;BME280;52765;52.258;21.052;2023-05-08T09:31:35;102113.53;;;15.27;37.40
65997;BME280;52765;52.258;21.052;2023-05-08T09:34:00;102111.25;;;15.23;37.39
65997;BME280;52765;52.258;21.052;2023-05-08T09:36:26;102113.06;;;15.42;36.86
65997;BME280;52765;52.258;21.052;2023-05-08T09:38:56;102119.50;;;15.50;36.37
65997;BME280;52765;52.258;21.052;2023-05-08T09:41:22;102114.00;;;15.60;36.62
65997;BME280;52765;52.258;21.052;2023-05-08T09:44:02;102112.94;;;15.24;35.87
65997;BME280;52765;52.258;21.052;2023-05-08T09:46:28;102113.25;;;14.91;37.10
65997;BME280;52765;52.258;21.052;2023-05-08T09:48:56;102113.25;;;15.11;37.02
65997;BME280;52765;52.258;21.052;2023-05-08T09:51:23;102109.78;;;15.38;36.98
65997;BME280;52765;52.258;21.052;2023-05-08T09:53:50;102114.34;;;15.57;35.90
65997;BME280;52765;52.258;21.052;2023-05-08T09:56:36;102093.09;;;15.80;36.13
65997;BME280;52765;52.258;21.052;2023-05-08T09:59:05;102103.31;;;16.06;36.51
65997;BME280;52765;52.258;21.052;2023-05-08T10:01:46;102104.34;;;15.95;35.14
65997;BME280;52765;52.258;21.052;2023-05-08T10:04:13;102100.56;;;15.78;35.63
65997;BME280;52765;52.258;21.052;2023-05-08T10:06:38;102106.34;;;15.46;35.77
65997;BME280;52765;52.258;21.052;2023-05-08T10:09:12;102099.41;;;15.14;36.26
65997;BME280;52765;52.258;21.052;2023-05-08T10:11:48;102102.81;;;14.77;37.17
65997;BME280;52765;52.258;21.052;2023-05-08T10:14:17;102091.50;;;14.52;38.05
65997;BME280;52765;52.258;21.052;2023-05-08T10:16:44;102087.75;;;14.53;38.29
65997;BME280;52765;52.258;21.052;2023-05-08T10:19:15;102088.25;;;14.88;37.88
65997;BME280;52765;52.258;21.052;2023-05-08T10:21:46;102091.41;;;14.83;37.63
65997;BME280;52765;52.258;21.052;2023-05-08T10:24:23;102085.25;;;14.71;36.67
65997;BME280;52765;52.258;21.052;2023-05-08T10:26:58;102080.09;;;14.68;35.92
65997;BME280;52765;52.258;21.052;2023-05-08T10:29:33;102077.13;;;14.81;35.84
65997;BME280;52765;52.258;21.052;2023-05-08T10:32:08;102079.97;;;15.09;35.88
65997;BME280;52765;52.258;21.052;2023-05-08T10:34:39;102077.50;;;15.25;36.36
65997;BME280;52765;52.258;21.052;2023-05-08T10:37:09;102082.94;;;15.25;36.32
65997;BME280;52765;52.258;21.052;2023-05-08T10:39:36;102077.25;;;15.09;35.77
65997;BME280;52765;52.258;21.052;2023-05-08T10:42:01;102070.25;;;15.06;35.41
65997;BME280;52765;52.258;21.052;2023-05-08T10:44:27;102074.00;;;14.86;35.27
65997;BME280;52765;52.258;21.052;2023-05-08T10:47:21;102073.84;;;14.87;35.62
65997;BME280;52765;52.258;21.052;2023-05-08T10:52:49;102067.66;;;15.71;35.17
65997;BME280;52765;52.258;21.052;2023-05-08T10:55:32;102061.25;;;16.28;34.24
65997;BME280;52765;52.258;21.052;2023-05-08T10:58:11;102063.41;;;16.52;33.25
65997;BME280;52765;52.258;21.052;2023-05-08T11:03:18;102065.84;;;15.62;33.39
65997;BME280;52765;52.258;21.052;2023-05-08T11:05:48;102063.22;;;15.23;34.18
65997;BME280;52765;52.258;21.052;2023-05-08T11:08:19;102068.94;;;15.10;34.96
65997;BME280;52765;52.258;21.052;2023-05-08T11:10:59;102067.69;;;15.05;35.26
65997;BME280;52765;52.258;21.052;2023-05-08T11:13:46;102067.25;;;15.19;34.99
65997;BME280;52765;52.258;21.052;2023-05-08T11:16:12;102056.28;;;15.48;34.62
65997;BME280;52765;52.258;21.052;2023-05-08T11:24:39;102050.78;;;16.33;32.64
65997;BME280;52765;52.258;21.052;2023-05-08T11:27:05;102057.00;;;16.25;33.01
65997;BME280;52765;52.258;21.052;2023-05-08T11:29:31;102045.44;;;16.14;32.86
65997;BME280;52765;52.258;21.052;2023-05-08T11:31:57;102039.91;;;16.51;32.86
65997;BME280;52765;52.258;21.052;2023-05-08T11:39:35;102040.03;;;17.48;31.48
65997;BME280;52765;52.258;21.052;2023-05-08T11:42:39;102037.03;;;17.93;30.68
65997;BME280;52765;52.258;21.052;2023-05-08T11:45:08;102028.22;;;18.08;30.53
65997;BME280;52765;52.258;21.052;2023-05-08T11:47:41;102043.09;;;18.22;30.05
65997;BME280;52765;52.258;21.052;2023-05-08T11:50:11;102023.38;;;18.53;29.98
65997;BME280;52765;52.258;21.052;2023-05-08T11:52:39;102041.50;;;19.03;29.73
65997;BME280;52765;52.258;21.052;2023-05-08T11:55:09;102022.53;;;19.34;29.91
65997;BME280;52765;52.258;21.052;2023-05-08T11:57:35;102024.41;;;19.26;29.50
65997;BME280;52765;52.258;21.052;2023-05-08T12:00:10;102031.09;;;18.98;29.94
65997;BME280;52765;52.258;21.052;2023-05-08T12:02:37;102028.53;;;19.13;29.51
65997;BME280;52765;52.258;21.052;2023-05-08T12:05:04;102034.38;;;19.66;29.26
65997;BME280;52765;52.258;21.052;2023-05-08T12:07:29;102032.75;;;19.96;27.17
65997;BME280;52765;52.258;21.052;2023-05-08T12:09:55;102009.25;;;19.71;27.48
65997;BME280;52765;52.258;21.052;2023-05-08T12:12:20;102016.13;;;20.06;27.73
65997;BME280;52765;52.258;21.052;2023-05-08T12:14:49;102017.47;;;20.42;27.29
65997;BME280;52765;52.258;21.052;2023-05-08T12:17:16;102014.88;;;20.17;27.59
65997;BME280;52765;52.258;21.052;2023-05-08T12:19:42;102016.19;;;19.90;28.20
65997;BME280;52765;52.258;21.052;2023-05-08T12:22:08;102015.72;;;19.22;28.46
65997;BME280;52765;52.258;21.052;2023-05-08T12:24:37;102011.09;;;18.81;29.08
65997;BME280;52765;52.258;21.052;2023-05-08T12:27:03;102010.59;;;19.27;28.87
65997;BME280;52765;52.258;21.052;2023-05-08T12:29:29;102005.41;;;19.96;28.99
65997;BME280;52765;52.258;21.052;2023-05-08T12:31:54;102011.53;;;20.53;27.95
65997;BME280;52765;52.258;21.052;2023-05-08T12:34:20;102011.50;;;20.84;27.88
65997;BME280;52765;52.258;21.052;2023-05-08T12:36:46;101997.47;;;20.64;25.45
65997;BME280;52765;52.258;21.052;2023-05-08T12:39:13;101995.59;;;20.57;26.64
65997;BME280;52765;52.258;21.052;2023-05-08T12:41:52;101999.63;;;20.92;26.16
65997;BME280;52765;52.258;21.052;2023-05-08T12:44:22;101995.72;;;20.86;26.19
65997;BME280;52765;52.258;21.052;2023-05-08T12:46:50;101992.00;;;20.64;26.05
65997;BME280;52765;52.258;21.052;2023-05-08T12:49:42;101996.81;;;21.00;27.23
65997;BME280;52765;52.258;21.052;2023-05-08T12:52:11;101993.06;;;21.31;25.74
65997;BME280;52765;52.258;21.052;2023-05-08T12:54:47;101991.50;;;21.52;25.95
65997;BME280;52765;52.258;21.052;2023-05-08T12:57:15;101990.81;;;21.50;25.22
65997;BME280;52765;52.258;21.052;2023-05-08T12:59:42;101989.84;;;21.42;25.66
65997;BME280;52765;52.258;21.052;2023-05-08T13:02:20;101989.41;;;21.54;24.77
65997;BME280;52765;52.258;21.052;2023-05-08T13:04:54;101983.47;;;21.50;24.58
65997;BME280;52765;52.258;21.052;2023-05-08T13:07:20;101983.38;;;21.58;24.38
65997;BME280;52765;52.258;21.052;2023-05-08T13:09:59;101976.53;;;21.69;24.39
65997;BME280;52765;52.258;21.052;2023-05-08T13:12:28;101982.09;;;21.46;24.08
65997;BME280;52765;52.258;21.052;2023-05-08T13:14:59;101980.00;;;21.33;24.21
65997;BME280;52765;52.258;21.052;2023-05-08T13:17:25;101981.50;;;21.06;24.43
65997;BME280;52765;52.258;21.052;2023-05-08T13:19:50;101976.75;;;21.00;24.98
65997;BME280;52765;52.258;21.052;2023-05-08T13:22:16;101980.06;;;20.80;24.78
65997;BME280;52765;52.258;21.052;2023-05-08T13:24:41;101978.13;;;21.04;24.89
65997;BME280;52765;52.258;21.052;2023-05-08T13:27:09;101965.78;;;20.85;24.75
65997;BME280;52765;52.258;21.052;2023-05-08T13:29:35;101954.53;;;20.80;24.82
65997;BME280;52765;52.258;21.052;2023-05-08T13:32:00;101948.84;;;20.66;24.82
65997;BME280;52765;52.258;21.052;2023-05-08T13:34:26;101960.47;;;20.22;25.79
65997;BME280;52765;52.258;21.052;2023-05-08T13:36:51;101956.00;;;19.98;26.16
65997;BME280;52765;52.258;21.052;2023-05-08T13:39:17;101950.91;;;20.41;25.81
65997;BME280;52765;52.258;21.052;2023-05-08T13:41:42;101958.50;;;20.31;25.68